Time;durP1;ratioP1;P1;durP2;ratioP2;P2;SDS_P1;SDS_P2;PMS_P1;PMS_P2;Temp;Humidity;BMP_temperature;BMP_pressure;BME280_temperature;BME280_humidity;BME280_pressure;Samples;Min_cycle;Max_cycle;Signal;HPM_P1;HPM_P2
2023/04/12 00:01:20;;;;;;;6.12;1.80;;;;;;;24.97;36.80;99115.50;4331097;33;33815;-61
2023/04/12 00:03:49;;;;;;;4.68;1.90;;;;;;;24.95;36.79;99109.50;4330871;33;34473;-61
2023/04/12 00:06:26;;;;;;;5.62;2.00;;;;;;;24.93;36.80;99109.72;4331381;33;33455;-61
2023/04/12 00:08:54;;;;;;;4.57;2.33;;;;;;;24.92;36.79;99112.72;4329919;33;34248;-61
2023/04/12 00:11:22;;;;;;;5.32;2.45;;;;;;;24.90;36.82;99110.25;4329455;33;33584;-62
2023/04/12 00:13:50;;;;;;;3.97;2.00;;;;;;;24.88;36.83;99112.38;4317861;33;33101;-61
2023/04/12 00:16:18;;;;;;;3.90;1.70;;;;;;;24.86;36.84;99111.81;4336769;33;33915;-61
2023/04/12 00:18:45;;;;;;;3.92;1.83;;;;;;;24.84;36.86;99111.22;4331894;33;33532;-61
2023/04/12 00:21:16;;;;;;;6.00;1.90;;;;;;;24.83;36.88;99111.50;4344825;33;34652;-62
2023/04/12 00:23:48;;;;;;;5.30;1.40;;;;;;;24.82;36.88;99126.22;4345993;33;33923;-61
2023/04/12 00:26:15;;;;;;;3.87;1.67;;;;;;;24.79;36.89;99121.25;4331864;33;33371;-61
2023/04/12 00:28:43;;;;;;;4.82;1.80;;;;;;;24.79;36.90;99129.44;4344435;33;33436;-61
2023/04/12 00:31:11;;;;;;;6.00;1.90;;;;;;;24.77;36.89;99120.69;4344355;33;32899;-61
2023/04/12 00:33:39;;;;;;;4.37;1.80;;;;;;;24.76;36.92;99119.03;4344000;33;34573;-61
2023/04/12 00:36:07;;;;;;;5.40;2.05;;;;;;;24.73;36.93;99117.66;4345625;33;33526;-61
2023/04/12 00:38:35;;;;;;;4.10;1.92;;;;;;;24.74;36.94;99104.81;4344330;33;33526;-62
2023/04/12 00:41:03;;;;;;;8.82;2.00;;;;;;;24.72;36.94;99099.63;4345302;33;33549;-61
2023/04/12 00:43:31;;;;;;;6.75;2.00;;;;;;;24.70;36.98;99099.03;4332198;33;34060;-61
2023/04/12 00:45:59;;;;;;;4.25;1.80;;;;;;;24.68;36.95;99091.12;4345544;33;33712;-63
2023/04/12 00:48:27;;;;;;;2.80;1.27;;;;;;;24.66;37.01;99098.72;4331875;33;34062;-61
2023/04/12 00:50:56;;;;;;;3.60;1.80;;;;;;;24.65;37.02;99094.34;4345357;33;33729;-60
2023/04/12 00:53:24;;;;;;;4.40;1.70;;;;;;;24.65;37.01;99096.25;4343962;33;33834;-61
2023/04/12 00:55:51;;;;;;;4.32;2.03;;;;;;;24.64;36.99;99092.69;4343579;32;32635;-61
2023/04/12 00:58:23;;;;;;;4.57;2.03;;;;;;;24.63;36.94;99099.22;4344320;33;34176;-61
2023/04/12 01:00:51;;;;;;;4.30;1.80;;;;;;;24.63;36.90;99095.69;4332019;33;34751;-61
2023/04/12 01:03:21;;;;;;;5.35;2.03;;;;;;;24.63;36.92;99101.97;4344904;33;33880;-60
2023/04/12 01:06:13;;;;;;;6.10;1.95;;;;;;;24.59;36.97;99092.63;4344159;33;34595;-61
2023/04/12 01:09:22;;;;;;;3.30;1.85;;;;;;;24.60;36.97;99088.00;4344034;33;33352;-61
2023/04/12 01:12:02;;;;;;;4.47;1.80;;;;;;;24.60;36.96;99096.19;4323535;32;34496;-60
2023/04/12 01:14:34;;;;;;;;;;;;;;;24.56;37.04;99087.66;4332040;33;33496;-61
2023/04/12 01:17:04;;;;;;;8.63;1.95;;;;;;;24.64;36.94;99092.69;4334970;33;34822;-60
2023/04/12 01:19:33;;;;;;;4.82;1.67;;;;;;;24.54;37.12;99094.47;4329016;33;34265;-60
2023/04/12 01:22:12;;;;;;;;;;;;;;;24.51;37.19;99095.78;4330475;33;34590;-61
2023/04/12 01:24:47;;;;;;;4.18;1.55;;;;;;;24.60;37.07;99101.63;4328860;33;34150;-61
2023/04/12 01:27:42;;;;;;;3.42;1.70;;;;;;;24.51;37.18;99101.22;4330565;33;33418;-61
2023/04/12 01:30:11;;;;;;;5.15;1.87;;;;;;;24.49;37.15;99100.66;4326763;33;33006;-61
2023/04/12 01:32:38;;;;;;;2.92;1.87;;;;;;;24.47;37.17;99097.34;4318566;33;34033;-61
2023/04/12 01:35:07;;;;;;;3.33;1.73;;;;;;;24.45;37.25;99102.25;4306911;33;34098;-60
2023/04/12 01:37:35;;;;;;;4.05;1.67;;;;;;;24.45;37.30;99098.69;4318808;33;32710;-60
2023/04/12 01:40:06;;;;;;;3.20;1.70;;;;;;;24.43;37.32;99093.47;4330653;33;34234;-60
2023/04/12 01:42:34;;;;;;;3.08;1.60;;;;;;;24.43;37.39;99094.31;4319193;33;34006;-62
2023/04/12 01:45:02;;;;;;;7.60;1.92;;;;;;;24.42;37.28;99097.28;4318603;33;33770;-60
2023/04/12 01:47:30;;;;;;;4.80;1.40;;;;;;;24.42;37.29;99089.09;4331746;33;34266;-61
2023/04/12 01:50:24;;;;;;;5.35;1.55;;;;;;;24.41;37.22;99093.72;4318547;33;33433;-60
2023/04/12 01:52:57;;;;;;;6.45;2.20;;;;;;;24.43;37.20;99104.38;4332102;33;33918;-60
2023/04/12 01:55:25;;;;;;;3.25;1.60;;;;;;;24.39;37.24;99103.25;4330396;33;34085;-61
2023/04/12 01:57:52;;;;;;;4.18;1.50;;;;;;;24.38;37.23;99105.12;4330856;33;33328;-60
2023/04/12 02:00:20;;;;;;;4.35;1.50;;;;;;;24.38;37.21;99096.13;4331090;33;34133;-60
2023/04/12 02:02:48;;;;;;;6.37;1.70;;;;;;;24.37;37.20;99091.75;4330301;33;33592;-61
2023/04/12 02:05:16;;;;;;;3.08;1.90;;;;;;;24.37;37.20;99089.03;4318888;33;34826;-61
2023/04/12 02:07:43;;;;;;;3.85;1.73;;;;;;;24.35;37.23;99088.44;4330737;33;33771;-60
2023/04/12 02:10:14;;;;;;;5.72;1.50;;;;;;;24.35;37.25;99088.44;4330277;33;34249;-61
2023/04/12 02:12:42;;;;;;;3.05;1.50;;;;;;;24.34;37.25;99092.19;4330600;33;33896;-61
2023/04/12 02:15:11;;;;;;;7.53;1.85;;;;;;;24.34;37.24;99086.75;4330884;33;34681;-61
2023/04/12 02:17:39;;;;;;;7.47;1.87;;;;;;;24.32;37.26;99097.91;4343886;33;34501;-60
2023/04/12 02:20:08;;;;;;;4.85;1.83;;;;;;;24.33;37.26;99101.47;4345524;33;34220;-61
2023/04/12 02:22:36;;;;;;;3.58;1.67;;;;;;;24.32;37.25;99092.47;4345396;33;33104;-60
2023/04/12 02:25:05;;;;;;;3.28;1.50;;;;;;;24.31;37.29;99096.28;4345004;33;33021;-61
2023/04/12 02:27:33;;;;;;;5.18;1.98;;;;;;;24.31;37.31;99099.00;4345330;33;34689;-60
2023/04/12 02:30:01;;;;;;;5.32;1.67;;;;;;;24.30;37.32;99093.81;4346825;33;33208;-61
2023/04/12 02:32:31;;;;;;;;;;;;;;;24.29;37.32;99090.22;4345269;33;33557;-60
2023/04/12 02:35:01;;;;;;;6.62;2.15;;;;;;;24.37;37.16;99091.75;4333524;33;33156;-61
2023/04/12 02:37:29;;;;;;;4.57;1.70;;;;;;;24.32;37.30;99091.63;4346718;33;33886;-60
2023/04/12 02:39:57;;;;;;;3.35;1.50;;;;;;;24.28;37.41;99095.94;4345291;33;33349;-61
2023/04/12 02:42:25;;;;;;;2.75;1.42;;;;;;;24.26;37.46;99096.19;4345179;33;33825;-61
2023/04/12 02:44:53;;;;;;;6.40;1.77;;;;;;;24.26;37.48;99084.47;4345360;33;33148;-61
2023/04/12 02:47:20;;;;;;;3.78;1.50;;;;;;;24.25;37.50;99090.97;4346306;33;33519;-61
2023/04/12 02:49:48;;;;;;;4.85;1.67;;;;;;;24.24;37.49;99097.50;4345492;33;32887;-61
2023/04/12 02:52:16;;;;;;;5.87;1.62;;;;;;;24.24;37.49;99089.31;4345025;33;33788;-61
2023/04/12 02:54:45;;;;;;;4.43;1.75;;;;;;;24.23;37.49;99077.59;4346456;32;34006;-61
2023/04/12 02:57:14;;;;;;;5.35;1.73;;;;;;;24.22;37.49;99075.97;4345418;33;34661;-61
2023/04/12 02:59:42;;;;;;;6.60;2.05;;;;;;;24.22;37.52;99077.84;4346621;33;33540;-61
2023/04/12 03:02:10;;;;;;;5.15;1.40;;;;;;;24.21;37.52;99081.66;4344954;33;34122;-61
2023/04/12 03:04:38;;;;;;;4.30;1.60;;;;;;;24.20;37.55;99080.81;4346548;33;34411;-61
2023/04/12 03:07:07;;;;;;;7.75;1.73;;;;;;;24.19;37.54;99081.91;4345315;33;33724;-61
2023/04/12 03:09:37;;;;;;;5.05;1.70;;;;;;;24.20;37.52;99080.81;4332842;33;33183;-61
2023/04/12 03:12:05;;;;;;;;;;;;;;;24.19;37.52;99081.91;4346975;33;34586;-61
2023/04/12 03:14:34;;;;;;;12.88;1.73;;;;;;;24.27;37.36;99076.03;4346507;33;33382;-61
2023/04/12 03:17:02;;;;;;;2.75;1.60;;;;;;;24.19;37.50;99069.09;4336258;33;33628;-60
2023/04/12 03:19:33;;;;;;;5.35;1.40;;;;;;;24.15;37.58;99069.84;4331793;33;33954;-61
2023/04/12 03:22:03;;;;;;;4.70;1.50;;;;;;;24.15;37.58;99069.84;4329749;33;34034;-60
2023/04/12 03:24:33;;;;;;;3.15;1.50;;;;;;;24.14;37.59;99062.75;4330768;33;34371;-61
2023/04/12 03:27:02;;;;;;;3.57;1.50;;;;;;;24.15;37.60;99064.37;4331651;33;34554;-61
2023/04/12 03:29:31;;;;;;;3.30;1.60;;;;;;;24.14;37.58;99060.84;4330005;33;33087;-60
2023/04/12 03:32:00;;;;;;;5.15;1.33;;;;;;;24.13;37.59;99064.63;4331767;33;34710;-61
2023/04/12 03:34:34;;;;;;;3.37;1.15;;;;;;;24.12;37.59;99060.28;4318408;33;33412;-61
2023/04/12 03:37:03;;;;;;;3.72;1.50;;;;;;;24.11;37.63;99049.63;4330188;33;33756;-61
2023/04/12 03:39:30;;;;;;;6.82;1.75;;;;;;;24.11;37.60;99047.72;4330453;33;33895;-61
2023/04/12 03:41:58;;;;;;;4.03;1.48;;;;;;;24.10;37.60;99051.50;4331561;33;34650;-61
2023/04/12 03:44:26;;;;;;;6.60;1.42;;;;;;;24.10;37.59;99050.69;4331231;33;33982;-61
2023/04/12 03:46:54;;;;;;;3.75;1.52;;;;;;;24.11;37.60;99046.91;4331426;33;34045;-61
2023/04/12 03:49:22;;;;;;;5.03;1.70;;;;;;;24.09;37.60;99047.13;4331162;33;33073;-61
2023/04/12 03:51:51;;;;;;;4.25;1.35;;;;;;;24.08;37.61;99050.94;4330595;33;34584;-60
2023/04/12 03:54:19;;;;;;;3.17;1.50;;;;;;;24.08;37.62;99045.47;4330249;33;33080;-60
2023/04/12 03:56:48;;;;;;;4.47;1.62;;;;;;;24.08;37.61;99044.66;4331545;33;33529;-61
2023/04/12 03:59:16;;;;;;;5.43;1.75;;;;;;;24.09;37.60;99044.41;4330168;33;34086;-61
2023/04/12 04:01:45;;;;;;;3.70;1.67;;;;;;;24.05;37.62;99048.69;4329901;33;32867;-61
2023/04/12 04:04:12;;;;;;;3.12;1.50;;;;;;;24.05;37.62;99045.16;4318426;33;33567;-61
2023/04/12 04:06:40;;;;;;;4.22;1.67;;;;;;;24.05;37.62;99039.69;4330041;33;33772;-61
2023/04/12 04:09:08;;;;;;;4.37;1.40;;;;;;;24.04;37.62;99040.78;4329914;33;32942;-61
2023/04/12 04:11:38;;;;;;;6.85;2.00;;;;;;;24.04;37.67;99046.22;4331107;33;34614;-61
2023/04/12 04:14:06;;;;;;;4.00;1.55;;;;;;;24.04;37.71;99047.06;4330885;33;33681;-61
2023/04/12 04:16:34;;;;;;;9.32;2.00;;;;;;;24.03;37.74;99042.69;4338585;33;33646;-61
2023/04/12 04:19:03;;;;;;;3.67;1.50;;;;;;;24.02;37.74;99043.75;4344938;33;33048;-61
2023/04/12 04:21:31;;;;;;;2.85;1.45;;;;;;;24.02;37.78;99048.37;4332216;33;34514;-61
2023/04/12 04:24:00;;;;;;;3.40;1.80;;;;;;;24.02;37.78;99046.50;4344443;33;34177;-60
2023/04/12 04:26:32;;;;;;;2.92;1.45;;;;;;;24.01;37.81;99039.38;4344868;33;33912;-61
2023/04/12 04:29:03;;;;;;;8.07;1.60;;;;;;;24.02;37.80;99042.94;4345757;33;33102;-60
2023/04/12 04:31:33;;;;;;;3.40;1.90;;;;;;;24.01;37.83;99044.00;4344584;33;33587;-61
2023/04/12 04:34:04;;;;;;;2.85;1.40;;;;;;;24.00;37.86;99042.34;4344812;33;34582;-61
2023/04/12 04:36:32;;;;;;;;;;;;;;;23.99;37.86;99036.06;4345081;33;33267;-61
2023/04/12 04:39:00;;;;;;;4.40;1.60;;;;;;;24.09;37.66;99036.22;4345578;33;33402;-61
2023/04/12 04:41:33;;;;;;;4.28;1.48;;;;;;;24.02;37.84;99038.31;4345800;33;33882;-60
2023/04/12 04:44:03;;;;;;;5.85;1.50;;;;;;;24.01;37.90;99044.81;4336052;33;33772;-61
2023/04/12 04:46:31;;;;;;;8.02;1.80;;;;;;;24.00;37.88;99040.44;4314136;33;32585;-62
2023/04/12 04:48:58;;;;;;;5.87;1.52;;;;;;;24.00;37.92;99036.91;4316045;33;33130;-61
2023/04/12 04:51:26;;;;;;;14.00;2.35;;;;;;;24.01;38.07;99035.81;4315941;33;33861;-61
2023/04/12 04:53:54;;;;;;;6.20;1.80;;;;;;;24.00;38.02;99040.44;4316100;33;34556;-61
2023/04/12 04:56:23;;;;;;;7.37;1.70;;;;;;;23.99;37.69;99040.69;4316904;33;33309;-63
2023/04/12 04:58:51;;;;;;;8.80;1.80;;;;;;;23.97;37.32;99038.25;4303307;33;33100;-62
2023/04/12 05:01:26;;;;;;;7.90;1.80;;;;;;;23.97;37.12;99032.78;4314756;33;33561;-61
2023/04/12 05:03:55;;;;;;;6.10;1.83;;;;;;;23.93;37.13;99027.00;4317637;33;34517;-61
2023/04/12 05:06:26;;;;;;;;;;;;;;;23.93;37.12;99031.63;4328727;33;33656;-62
2023/04/12 05:08:53;;;;;;;5.62;1.60;;;;;;;23.99;36.99;99027.91;4318171;33;33176;-62
2023/04/12 05:11:22;;;;;;;5.55;1.80;;;;;;;23.91;37.05;99037.31;4328323;33;33737;-61
2023/04/12 05:13:50;;;;;;;7.18;2.00;;;;;;;23.89;37.07;99038.66;4328202;33;34474;-61
2023/04/12 05:16:17;;;;;;;7.03;1.70;;;;;;;23.86;37.08;99048.13;4317325;33;33826;-61
2023/04/12 05:18:46;;;;;;;7.07;1.70;;;;;;;23.86;37.04;99039.13;4316236;33;33278;-62
2023/04/12 05:21:14;;;;;;;4.57;1.30;;;;;;;23.83;37.01;99040.47;4315874;33;33445;-63
2023/04/12 05:23:44;;;;;;;3.92;1.75;;;;;;;23.84;36.97;99044.00;4315916;33;34518;-62
2023/04/12 05:26:12;;;;;;;7.03;1.75;;;;;;;23.82;36.94;99037.97;4327692;33;33715;-62
2023/04/12 05:28:40;;;;;;;5.35;1.60;;;;;;;23.82;36.90;99041.50;4315369;33;32840;-63
2023/04/12 05:31:08;;;;;;;6.07;1.80;;;;;;;23.81;36.89;99039.06;4317510;33;33439;-62
2023/04/12 05:33:37;;;;;;;4.57;1.48;;;;;;;23.80;36.85;99038.22;4317311;33;33721;-64
2023/04/12 05:36:04;;;;;;;5.05;1.45;;;;;;;23.79;36.85;99043.94;4315640;33;33484;-62
2023/04/12 05:38:32;;;;;;;3.97;1.50;;;;;;;23.77;36.83;99037.88;4316877;33;33307;-62
2023/04/12 05:41:03;;;;;;;8.27;1.73;;;;;;;23.78;36.79;99047.69;4316392;33;33332;-61
2023/04/12 05:43:31;;;;;;;4.45;1.58;;;;;;;23.77;36.79;99037.88;4315978;33;34013;-61
2023/04/12 05:45:59;;;;;;;4.35;1.62;;;;;;;23.75;36.76;99037.31;4317652;33;34288;-61
2023/04/12 05:48:27;;;;;;;5.82;1.70;;;;;;;23.74;36.75;99036.50;4317621;33;33496;-61
2023/04/12 05:50:55;;;;;;;3.22;1.40;;;;;;;23.73;36.75;99028.56;4321141;33;33807;-61
2023/04/12 05:53:23;;;;;;;3.42;1.45;;;;;;;23.72;36.73;99021.47;4324729;33;33213;-62
2023/04/12 05:55:50;;;;;;;4.55;1.45;;;;;;;23.72;36.70;99021.47;4322743;33;32808;-61
2023/04/12 05:58:18;;;;;;;2.62;1.40;;;;;;;23.71;36.69;99028.00;4325620;33;33450;-61
2023/04/12 06:00:48;;;;;;;4.07;1.58;;;;;;;23.71;36.66;99025.25;4336071;33;33943;-61
2023/04/12 06:03:16;;;;;;;7.28;1.70;;;;;;;23.68;36.68;99030.12;4340639;33;34766;-62
2023/04/12 06:05:43;;;;;;;2.58;1.60;;;;;;;23.69;36.63;99022.81;4346606;33;33889;-62
2023/04/12 06:08:13;;;;;;;5.00;1.73;;;;;;;23.67;36.63;99031.19;4345187;33;32434;-62
2023/04/12 06:10:41;;;;;;;3.55;1.62;;;;;;;23.66;36.61;99029.56;4345529;33;33921;-61
2023/04/12 06:13:09;;;;;;;3.30;1.40;;;;;;;23.66;36.60;99026.81;4339176;33;34609;-61
2023/04/12 06:15:39;;;;;;;6.37;1.75;;;;;;;23.65;36.61;99030.63;4327433;33;33608;-61
2023/04/12 06:18:07;;;;;;;4.37;1.40;;;;;;;23.64;36.57;99026.25;4337813;33;33541;-61
2023/04/12 06:20:38;;;;;;;2.12;1.10;;;;;;;23.65;36.56;99030.63;4332911;33;32986;-61
2023/04/12 06:23:05;;;;;;;4.72;1.75;;;;;;;23.64;36.61;99030.84;4334099;33;33617;-61
2023/04/12 06:25:33;;;;;;;2.95;1.30;;;;;;;23.65;36.58;99024.34;4330920;33;34481;-61
2023/04/12 06:28:01;;;;;;;4.12;1.50;;;;;;;23.66;36.55;99035.00;4331743;33;34003;-62
2023/04/12 06:30:29;;;;;;;5.45;1.30;;;;;;;23.66;36.56;99035.00;4330824;33;34030;-61
2023/04/12 06:32:57;;;;;;;6.03;1.37;;;;;;;23.67;36.55;99041.28;4318435;33;34525;-62
2023/04/12 06:35:24;;;;;;;3.60;1.60;;;;;;;23.67;36.55;99044.81;4331297;33;33005;-61
2023/04/12 06:37:52;;;;;;;1.90;1.20;;;;;;;23.68;36.49;99048.34;4346824;33;33074;-61
2023/04/12 06:40:20;;;;;;;3.72;1.40;;;;;;;23.68;36.47;99049.19;4346689;33;33582;-61
2023/04/12 06:42:47;;;;;;;3.55;1.27;;;;;;;23.70;36.46;99053.59;4344823;33;34595;-61
2023/04/12 06:45:18;;;;;;;3.03;1.10;;;;;;;23.70;36.43;99054.41;4345512;33;33938;-62
2023/04/12 06:47:46;;;;;;;2.90;1.12;;;;;;;23.70;36.42;99051.69;4346685;33;33736;-61
2023/04/12 06:50:13;;;;;;;3.83;1.30;;;;;;;23.72;36.40;99051.44;4345909;33;33823;-62
2023/04/12 06:52:41;;;;;;;3.00;1.20;;;;;;;23.73;36.41;99044.91;4345074;33;34068;-61
2023/04/12 06:55:08;;;;;;;5.30;1.70;;;;;;;23.73;36.38;99053.06;4346530;33;33913;-62
2023/04/12 06:57:36;;;;;;;2.45;1.20;;;;;;;23.72;36.39;99044.06;4332447;33;34139;-62
2023/04/12 07:00:04;;;;;;;3.95;1.40;;;;;;;23.75;36.42;99050.94;4345264;33;32431;-62
2023/04/12 07:02:32;;;;;;;3.70;1.40;;;;;;;23.75;36.44;99053.66;4345229;33;34025;-63
2023/04/12 07:04:59;;;;;;;3.53;1.23;;;;;;;23.77;36.48;99048.78;4345884;33;33651;-61
2023/04/12 07:07:27;;;;;;;1.98;1.12;;;;;;;23.78;36.49;99055.87;4345076;33;33430;-62
2023/04/12 07:09:54;;;;;;;4.47;1.42;;;;;;;23.78;36.57;99050.44;4345324;33;34715;-61
2023/04/12 07:12:22;;;;;;;2.72;1.37;;;;;;;23.79;36.57;99052.09;4329850;33;33828;-62
2023/04/12 07:14:49;;;;;;;2.58;1.33;;;;;;;23.79;36.63;99061.09;4330497;33;33800;-62
2023/04/12 07:17:17;;;;;;;3.00;1.50;;;;;;;23.80;36.58;99056.47;4331755;33;33944;-61
2023/04/12 07:19:44;;;;;;;2.60;1.30;;;;;;;23.81;36.60;99050.75;4329839;33;33575;-62
2023/04/12 07:22:12;;;;;;;4.90;1.40;;;;;;;23.81;36.68;99048.03;4330202;33;34782;-62
2023/04/12 07:24:40;;;;;;;2.97;1.20;;;;;;;23.82;36.61;99043.41;4331082;33;34521;-62
2023/04/12 07:27:09;;;;;;;3.35;1.20;;;;;;;23.84;36.64;99035.84;4331054;33;34293;-62
2023/04/12 07:29:37;;;;;;;9.10;1.87;;;;;;;23.83;36.69;99026.03;4331276;33;34508;-61
2023/04/12 07:32:05;;;;;;;2.35;1.17;;;;;;;23.85;36.72;99034.75;4318268;33;33618;-62
2023/04/12 07:34:33;;;;;;;4.15;1.50;;;;;;;23.86;36.80;99023.59;4317766;33;32894;-61
2023/04/12 07:37:00;;;;;;;4.95;1.45;;;;;;;23.87;36.88;99029.88;4330211;33;33848;-61
2023/04/12 07:39:28;;;;;;;3.35;1.52;;;;;;;23.87;36.93;99027.97;4330399;33;34565;-61
2023/04/12 07:41:56;;;;;;;5.62;1.70;;;;;;;23.87;36.98;99025.25;4330920;33;34862;-61
2023/04/12 07:44:23;;;;;;;6.93;1.50;;;;;;;23.89;37.06;99025.03;4318197;33;34441;-61
2023/04/12 07:46:51;;;;;;;5.68;1.48;;;;;;;23.90;37.16;99032.13;4330018;33;33134;-61
2023/04/12 07:49:18;;;;;;;6.10;1.87;;;;;;;23.90;37.24;99029.38;4330700;33;33145;-61
2023/04/12 07:51:46;;;;;;;3.12;1.50;;;;;;;23.91;37.29;99029.12;4331322;33;33740;-61
2023/04/12 07:54:14;;;;;;;5.43;1.60;;;;;;;23.91;37.36;99017.41;4330149;33;34305;-62
2023/04/12 07:56:43;;;;;;;6.20;1.30;;;;;;;23.93;37.44;99018.81;4319645;33;33666;-61
2023/04/12 07:59:10;;;;;;;9.10;1.55;;;;;;;23.93;37.50;99020.72;4325838;33;33623;-62
2023/04/12 08:01:38;;;;;;;5.80;1.40;;;;;;;23.93;37.56;99024.28;4315350;33;33671;-61
2023/04/12 08:04:06;;;;;;;5.10;1.40;;;;;;;23.94;37.59;99019.66;4316116;33;34443;-63
2023/04/12 08:06:34;;;;;;;6.20;1.67;;;;;;;23.96;37.62;99022.12;4316579;33;33995;-62
2023/04/12 08:09:01;;;;;;;5.45;1.75;;;;;;;23.96;37.65;99024.84;4315400;33;32833;-61
2023/04/12 08:11:29;;;;;;;6.47;1.80;;;;;;;23.94;37.61;99022.38;4302740;33;33554;-60
2023/04/12 08:13:57;;;;;;;4.37;1.67;;;;;;;23.94;37.51;99030.53;4315405;33;34085;-61
2023/04/12 08:16:25;;;;;;;7.03;1.50;;;;;;;23.93;37.60;99026.19;4316660;33;33395;-61
2023/04/12 08:18:53;;;;;;;6.35;1.33;;;;;;;23.92;37.59;99025.34;4303037;33;33131;-60
2023/04/12 08:21:22;;;;;;;7.10;1.92;;;;;;;23.90;37.54;99038.38;4316433;33;33746;-61
2023/04/12 08:23:50;;;;;;;3.62;1.25;;;;;;;23.89;37.58;99036.75;4316173;33;34216;-61
2023/04/12 08:26:18;;;;;;;3.92;1.40;;;;;;;23.88;37.54;99039.72;4316311;33;33241;-61
2023/04/12 08:28:46;;;;;;;4.93;1.45;;;;;;;23.87;37.51;99029.88;4316436;33;34619;-61
2023/04/12 08:31:14;;;;;;;4.93;1.75;;;;;;;23.85;37.48;99026.59;4316092;33;33788;-61
2023/04/12 08:33:42;;;;;;;4.57;1.40;;;;;;;23.85;37.48;99042.94;4314663;33;33737;-60
2023/04/12 08:36:10;;;;;;;5.10;1.30;;;;;;;23.83;37.45;99036.91;4315604;33;33348;-60
2023/04/12 08:38:37;;;;;;;4.12;1.50;;;;;;;23.83;37.45;99036.91;4314188;33;33653;-61
2023/04/12 08:41:12;;;;;;;4.45;1.37;;;;;;;23.81;37.48;99030.88;4303478;33;32950;-61
2023/04/12 08:43:44;;;;;;;4.95;1.87;;;;;;;23.80;37.46;99031.97;4315006;33;33550;-61
2023/04/12 08:46:14;;;;;;;6.60;1.33;;;;;;;23.80;37.43;99029.22;4310396;33;33281;-91
2023/04/12 08:48:46;;;;;;;4.65;1.60;;;;;;;23.78;37.42;99025.91;4312499;33;34441;-90
2023/04/12 08:51:16;;;;;;;5.50;1.50;;;;;;;23.77;37.43;99024.25;4324411;33;34621;-68
2023/04/12 08:53:45;;;;;;;3.80;1.40;;;;;;;23.74;37.42;99030.22;4325767;33;34884;-95
2023/04/12 08:56:12;;;;;;;6.55;1.25;;;;;;;23.74;37.35;99016.59;4324153;33;33165;-80
2023/04/12 08:58:42;;;;;;;3.75;1.23;;;;;;;23.74;37.35;99013.88;4327343;33;34964;-87
2023/04/12 09:01:12;;;;;;;;;;;;;;;23.73;37.35;99023.09;4316776;33;34005;-87
2023/04/12 09:03:43;;;;;;;5.50;1.55;;;;;;;23.81;37.17;99020.81;4327497;33;34537;-95
2023/04/12 09:06:11;;;;;;;6.15;1.55;;;;;;;23.74;37.27;99027.50;4315428;33;33275;-89
2023/04/12 09:08:55;;;;;;;5.90;1.45;;;;;;;23.70;37.32;99018.19;4328346;33;34598;-85
2023/04/12 09:11:26;;;;;;;3.65;1.60;;;;;;;23.70;37.31;99020.91;4328758;33;34366;-94
2023/04/12 09:13:54;;;;;;;4.95;1.80;;;;;;;23.67;37.34;99027.66;4327296;33;35299;-85
2023/04/12 09:16:39;;;;;;;6.28;1.17;;;;;;;23.66;37.35;99021.38;4329092;33;33217;-83
2023/04/12 09:19:06;;;;;;;2.60;1.20;;;;;;;23.67;37.29;99017.56;4316051;33;35144;-70
2023/04/12 09:21:34;;;;;;;5.47;1.40;;;;;;;23.64;37.31;99019.97;4325886;33;35459;-87
2023/04/12 09:24:08;;;;;;;4.10;1.12;;;;;;;23.63;37.30;99013.66;4326950;33;34660;-92
2023/04/12 09:26:40;;;;;;;3.75;1.42;;;;;;;23.63;37.29;99019.09;4326145;33;33721;-96
2023/04/12 09:29:23;;;;;;;4.43;1.42;;;;;;;23.64;37.25;99009.06;4325705;33;34957;-95
2023/04/12 09:32:09;;;;;;;4.10;1.15;;;;;;;23.64;37.24;99018.09;4329802;33;34833;-74
2023/04/12 09:34:37;;;;;;;4.15;1.30;;;;;;;23.64;37.19;99009.91;4326987;33;34051;-90
2023/04/12 09:37:12;;;;;;;4.10;1.23;;;;;;;23.62;37.20;99005.75;4327726;33;34126;-96
2023/04/12 09:39:40;;;;;;;3.62;1.40;;;;;;;23.62;37.19;99001.13;4329294;33;33900;-79
2023/04/12 09:42:09;;;;;;;4.62;1.40;;;;;;;23.61;37.18;98995.94;4326748;33;34939;-84
2023/04/12 09:45:24;;;;;;;5.90;1.48;;;;;;;23.60;37.21;99000.56;4327876;33;20168;-93
2023/04/12 09:47:52;;;;;;;3.25;1.20;;;;;;;23.62;37.16;98995.69;4329972;33;33649;-85
2023/04/12 09:50:21;;;;;;;3.40;1.52;;;;;;;23.58;37.19;98990.97;4330254;33;35227;-90
2023/04/12 09:52:49;;;;;;;5.32;1.25;;;;;;;23.57;37.18;98998.31;4329894;33;34169;-85
2023/04/12 09:55:17;;;;;;;1.62;1.00;;;;;;;23.59;37.14;98988.00;4335580;33;35063;-91
2023/04/12 09:57:44;;;;;;;4.72;1.58;;;;;;;23.58;37.14;98983.62;4345557;33;33804;-94
2023/04/12 10:00:16;;;;;;;2.45;1.20;;;;;;;23.57;37.14;98984.69;4343030;33;34165;-83
2023/04/12 10:02:49;;;;;;;5.07;1.50;;;;;;;23.57;37.13;98983.88;4345367;33;35219;-81
2023/04/12 10:05:19;;;;;;;2.97;1.23;;;;;;;23.56;37.13;98974.88;4346823;33;33815;-84
2023/04/12 10:07:48;;;;;;;2.62;1.40;;;;;;;23.56;37.12;98983.06;4333425;33;34744;-95
2023/04/12 10:10:17;;;;;;;5.10;1.20;;;;;;;23.55;37.10;98984.12;4343451;33;34495;-88
2023/04/12 10:12:45;;;;;;;1.87;1.15;;;;;;;23.55;37.10;98981.41;4329489;33;35305;-94
2023/04/12 10:15:16;;;;;;;2.65;1.12;;;;;;;23.54;37.09;98973.47;4342114;33;34159;-94
2023/04/12 10:17:45;;;;;;;2.87;1.17;;;;;;;23.55;37.08;98978.69;4330598;33;32805;-92
2023/04/12 10:20:14;;;;;;;2.10;1.08;;;;;;;23.55;37.07;98975.13;4340975;33;33938;-92
2023/04/12 10:22:43;;;;;;;2.67;1.10;;;;;;;23.53;37.07;98988.16;4346470;33;34360;-85
2023/04/12 10:25:21;;;;;;;3.78;1.20;;;;;;;23.53;37.06;98980.00;4343480;33;33616;-87
2023/04/12 10:27:49;;;;;;;3.67;1.62;;;;;;;23.54;37.04;98968.84;4330387;33;32093;-92
2023/04/12 10:30:30;;;;;;;2.53;1.00;;;;;;;23.54;37.02;98977.00;4343676;33;33777;-90
2023/04/12 10:33:01;;;;;;;3.35;1.40;;;;;;;23.54;37.01;98977.00;4329663;33;33385;-92
2023/04/12 10:35:29;;;;;;;4.72;1.12;;;;;;;23.51;37.06;98974.81;4342843;33;34161;-95
2023/04/12 10:38:03;;;;;;;3.20;1.25;;;;;;;23.51;37.05;98982.97;4318753;33;32609;-92
2023/04/12 10:40:31;;;;;;;3.37;1.30;;;;;;;23.52;37.03;98968.28;4345460;33;33482;-93
2023/04/12 10:43:17;;;;;;;2.85;1.12;;;;;;;23.52;37.00;98971.00;4341651;33;34231;-84
2023/04/12 10:45:45;;;;;;;2.30;1.17;;;;;;;23.53;36.96;98964.47;4345499;33;34115;-90
2023/04/12 10:48:31;;;;;;;2.78;1.12;;;;;;;23.51;36.96;98963.91;4345920;33;34875;-88
2023/04/12 10:51:20;;;;;;;3.20;1.00;;;;;;;23.53;36.95;98960.94;4343323;33;34022;-87
2023/04/12 10:53:49;;;;;;;3.97;1.40;;;;;;;23.51;36.96;98950.31;4343743;33;35360;-95
2023/04/12 10:56:41;;;;;;;2.60;1.37;;;;;;;23.50;36.98;98955.97;4345230;33;35316;-88
2023/04/12 10:59:10;;;;;;;3.10;1.15;;;;;;;23.52;36.94;98945.69;4344550;33;33827;-91
2023/04/12 11:01:39;;;;;;;2.27;1.10;;;;;;;23.49;36.94;98941.53;4343452;33;35158;-92
2023/04/12 11:04:14;;;;;;;1.85;0.95;;;;;;;23.49;36.94;98941.53;4343113;33;34882;-89
2023/04/12 11:06:52;;;;;;;2.87;0.95;;;;;;;23.49;36.93;98938.00;4343990;33;32873;-92
2023/04/12 11:09:32;;;;;;;3.03;1.25;;;;;;;23.46;36.96;98931.16;4344358;33;34213;-90
2023/04/12 11:12:02;;;;;;;2.12;1.25;;;;;;;23.49;36.90;98929.81;4344163;33;34005;-80
2023/04/12 11:14:33;;;;;;;3.28;1.17;;;;;;;23.47;36.96;98940.16;4346240;33;35276;-90
2023/04/12 11:17:21;;;;;;;3.65;1.30;;;;;;;23.45;36.96;98940.38;4344629;33;34504;-92
2023/04/12 11:19:51;;;;;;;2.53;1.33;;;;;;;23.46;36.94;98925.72;4342996;33;32430;-87
2023/04/12 11:22:20;;;;;;;3.53;0.98;;;;;;;23.46;36.94;98924.91;4331190;33;33750;-91
2023/04/12 11:24:49;;;;;;;1.92;1.00;;;;;;;23.45;36.94;98925.94;4345975;33;34047;-85
2023/04/12 11:27:17;;;;;;;1.90;1.10;;;;;;;23.43;36.93;98918.03;4343181;33;33607;-89
2023/04/12 11:32:49;;;;;;;4.62;1.10;;;;;;;23.46;36.89;98923.00;4381129;27;20103;-85
2023/04/12 11:35:19;;;;;;;1.75;1.10;;;;;;;23.41;36.91;98921.00;4331068;33;34412;-80
2023/04/12 11:37:46;;;;;;;2.55;1.10;;;;;;;23.42;36.92;98921.84;4332292;33;35159;-77
2023/04/12 11:40:14;;;;;;;2.50;1.30;;;;;;;23.42;36.91;98921.84;4330740;33;33460;-80
2023/04/12 11:42:41;;;;;;;2.40;1.10;;;;;;;23.41;36.93;98917.47;4330111;33;35001;-86
2023/04/12 11:45:12;;;;;;;3.30;1.20;;;;;;;23.42;36.91;98930.00;4330314;33;35339;-77
2023/04/12 11:47:45;;;;;;;1.77;0.90;;;;;;;23.42;36.90;98921.84;4319389;33;34248;-85
2023/04/12 11:50:25;;;;;;;2.37;0.95;;;;;;;23.42;36.88;98916.41;4318174;33;32240;-81